sensor_id;sensor_type;location;lat;lon;timestamp;P1;durP1;ratioP1;P2;durP2;ratioP2
19095;SDS011;9680;52.520;13.332;2023-02-15T00:00:44;45.13;;;14.83;;
19095;SDS011;9680;52.520;13.332;2023-02-15T00:03:11;35.70;;;13.40;;
19095;SDS011;9680;52.520;13.332;2023-02-15T00:05:37;39.50;;;12.87;;
19095;SDS011;9680;52.520;13.332;2023-02-15T00:08:06;40.07;;;14.00;;
19095;SDS011;9680;52.520;13.332;2023-02-15T00:10:32;38.13;;;13.60;;
19095;SDS011;9680;52.520;13.332;2023-02-15T00:12:59;36.50;;;13.17;;
19095;SDS011;9680;52.520;13.332;2023-02-15T00:15:26;38.53;;;14.43;;
19095;SDS011;9680;52.520;13.332;2023-02-15T00:17:53;42.50;;;14.37;;
19095;SDS011;9680;52.520;13.332;2023-02-15T00:20:20;36.87;;;13.77;;
19095;SDS011;9680;52.520;13.332;2023-02-15T00:22:47;41.57;;;14.60;;
19095;SDS011;9680;52.520;13.332;2023-02-15T00:25:15;39.90;;;14.33;;
19095;SDS011;9680;52.520;13.332;2023-02-15T00:27:42;41.17;;;13.80;;
19095;SDS011;9680;52.520;13.332;2023-02-15T00:30:09;38.60;;;13.00;;
19095;SDS011;9680;52.520;13.332;2023-02-15T00:32:36;44.50;;;14.43;;
19095;SDS011;9680;52.520;13.332;2023-02-15T00:35:03;40.83;;;14.57;;
19095;SDS011;9680;52.520;13.332;2023-02-15T00:37:32;39.90;;;14.13;;
19095;SDS011;9680;52.520;13.332;2023-02-15T00:40:02;38.60;;;13.60;;
19095;SDS011;9680;52.520;13.332;2023-02-15T00:42:30;40.13;;;13.60;;
19095;SDS011;9680;52.520;13.332;2023-02-15T00:44:57;39.60;;;13.97;;
19095;SDS011;9680;52.520;13.332;2023-02-15T00:47:27;40.87;;;14.73;;
19095;SDS011;9680;52.520;13.332;2023-02-15T00:49:54;39.80;;;14.07;;
19095;SDS011;9680;52.520;13.332;2023-02-15T00:52:20;37.53;;;13.07;;
19095;SDS011;9680;52.520;13.332;2023-02-15T00:54:47;40.10;;;14.50;;
19095;SDS011;9680;52.520;13.332;2023-02-15T00:57:14;46.57;;;14.40;;
19095;SDS011;9680;52.520;13.332;2023-02-15T00:59:42;44.37;;;14.93;;
19095;SDS011;9680;52.520;13.332;2023-02-15T01:02:09;43.57;;;15.07;;
19095;SDS011;9680;52.520;13.332;2023-02-15T01:04:36;39.67;;;14.10;;
19095;SDS011;9680;52.520;13.332;2023-02-15T01:07:03;41.53;;;13.70;;
19095;SDS011;9680;52.520;13.332;2023-02-15T01:09:32;42.37;;;14.47;;
19095;SDS011;9680;52.520;13.332;2023-02-15T01:11:58;41.00;;;14.73;;
19095;SDS011;9680;52.520;13.332;2023-02-15T01:14:26;36.43;;;13.90;;
19095;SDS011;9680;52.520;13.332;2023-02-15T01:16:54;41.33;;;14.37;;
19095;SDS011;9680;52.520;13.332;2023-02-15T01:19:20;45.13;;;15.23;;
19095;SDS011;9680;52.520;13.332;2023-02-15T01:21:47;42.17;;;14.83;;
19095;SDS011;9680;52.520;13.332;2023-02-15T01:24:14;38.67;;;14.77;;
19095;SDS011;9680;52.520;13.332;2023-02-15T01:26:41;43.20;;;14.37;;
19095;SDS011;9680;52.520;13.332;2023-02-15T01:29:08;42.90;;;14.83;;
19095;SDS011;9680;52.520;13.332;2023-02-15T01:31:35;44.70;;;15.27;;
19095;SDS011;9680;52.520;13.332;2023-02-15T01:34:07;42.03;;;15.27;;
19095;SDS011;9680;52.520;13.332;2023-02-15T01:36:33;46.53;;;15.63;;
19095;SDS011;9680;52.520;13.332;2023-02-15T01:39:01;51.83;;;15.53;;
19095;SDS011;9680;52.520;13.332;2023-02-15T01:41:30;45.33;;;15.80;;
19095;SDS011;9680;52.520;13.332;2023-02-15T01:43:59;43.87;;;15.53;;
19095;SDS011;9680;52.520;13.332;2023-02-15T01:46:28;43.90;;;15.57;;
19095;SDS011;9680;52.520;13.332;2023-02-15T01:49:01;43.00;;;13.90;;
19095;SDS011;9680;52.520;13.332;2023-02-15T01:51:34;44.30;;;15.53;;
19095;SDS011;9680;52.520;13.332;2023-02-15T01:54:07;43.50;;;15.47;;
19095;SDS011;9680;52.520;13.332;2023-02-15T01:56:38;44.17;;;14.93;;
19095;SDS011;9680;52.520;13.332;2023-02-15T01:59:08;45.80;;;16.07;;
19095;SDS011;9680;52.520;13.332;2023-02-15T02:01:37;45.93;;;16.63;;
19095;SDS011;9680;52.520;13.332;2023-02-15T02:04:06;48.30;;;16.27;;
19095;SDS011;9680;52.520;13.332;2023-02-15T02:06:41;48.70;;;16.27;;
19095;SDS011;9680;52.520;13.332;2023-02-15T02:09:07;47.80;;;15.93;;
19095;SDS011;9680;52.520;13.332;2023-02-15T02:11:35;54.03;;;15.83;;
19095;SDS011;9680;52.520;13.332;2023-02-15T02:14:02;46.73;;;16.37;;
19095;SDS011;9680;52.520;13.332;2023-02-15T02:16:32;50.07;;;16.50;;
19095;SDS011;9680;52.520;13.332;2023-02-15T02:19:10;48.17;;;15.60;;
19095;SDS011;9680;52.520;13.332;2023-02-15T02:24:54;55.30;;;16.90;;
19095;SDS011;9680;52.520;13.332;2023-02-15T02:27:38;45.50;;;15.50;;
19095;SDS011;9680;52.520;13.332;2023-02-15T02:30:25;50.83;;;16.50;;
19095;SDS011;9680;52.520;13.332;2023-02-15T02:33:11;51.23;;;16.77;;
19095;SDS011;9680;52.520;13.332;2023-02-15T02:35:57;47.87;;;16.67;;
19095;SDS011;9680;52.520;13.332;2023-02-15T02:38:35;50.57;;;16.20;;
19095;SDS011;9680;52.520;13.332;2023-02-15T02:41:13;55.20;;;17.37;;
19095;SDS011;9680;52.520;13.332;2023-02-15T02:43:48;57.30;;;18.00;;
19095;SDS011;9680;52.520;13.332;2023-02-15T02:46:22;54.43;;;17.07;;
19095;SDS011;9680;52.520;13.332;2023-02-15T02:48:55;56.27;;;17.20;;
19095;SDS011;9680;52.520;13.332;2023-02-15T02:51:23;54.80;;;18.47;;
19095;SDS011;9680;52.520;13.332;2023-02-15T02:53:50;52.37;;;17.10;;
19095;SDS011;9680;52.520;13.332;2023-02-15T02:56:21;53.77;;;18.47;;
19095;SDS011;9680;52.520;13.332;2023-02-15T02:58:55;57.97;;;18.87;;
19095;SDS011;9680;52.520;13.332;2023-02-15T03:01:27;58.20;;;18.37;;
19095;SDS011;9680;52.520;13.332;2023-02-15T03:03:59;56.87;;;18.30;;
19095;SDS011;9680;52.520;13.332;2023-02-15T03:06:33;58.40;;;17.53;;
19095;SDS011;9680;52.520;13.332;2023-02-15T03:09:07;57.70;;;18.77;;
19095;SDS011;9680;52.520;13.332;2023-02-15T03:11:40;64.63;;;20.33;;
19095;SDS011;9680;52.520;13.332;2023-02-15T03:14:09;66.40;;;19.73;;
19095;SDS011;9680;52.520;13.332;2023-02-15T03:16:36;55.37;;;18.07;;
19095;SDS011;9680;52.520;13.332;2023-02-15T03:19:08;64.77;;;19.17;;
19095;SDS011;9680;52.520;13.332;2023-02-15T03:21:38;62.10;;;19.10;;
19095;SDS011;9680;52.520;13.332;2023-02-15T03:24:08;63.17;;;19.63;;
19095;SDS011;9680;52.520;13.332;2023-02-15T03:26:38;60.87;;;18.47;;
19095;SDS011;9680;52.520;13.332;2023-02-15T03:29:08;70.43;;;20.43;;
19095;SDS011;9680;52.520;13.332;2023-02-15T03:31:38;71.00;;;20.87;;
19095;SDS011;9680;52.520;13.332;2023-02-15T03:34:10;67.47;;;20.77;;
19095;SDS011;9680;52.520;13.332;2023-02-15T03:36:41;68.77;;;21.43;;
19095;SDS011;9680;52.520;13.332;2023-02-15T03:39:13;68.63;;;20.40;;
19095;SDS011;9680;52.520;13.332;2023-02-15T03:41:48;68.87;;;21.57;;
19095;SDS011;9680;52.520;13.332;2023-02-15T03:44:24;72.80;;;21.53;;
19095;SDS011;9680;52.520;13.332;2023-02-15T03:46:55;63.87;;;21.37;;
19095;SDS011;9680;52.520;13.332;2023-02-15T03:49:31;65.90;;;19.27;;
19095;SDS011;9680;52.520;13.332;2023-02-15T03:52:05;69.30;;;20.60;;
19095;SDS011;9680;52.520;13.332;2023-02-15T03:54:35;72.03;;;21.50;;
19095;SDS011;9680;52.520;13.332;2023-02-15T03:57:10;63.37;;;20.17;;
19095;SDS011;9680;52.520;13.332;2023-02-15T03:59:57;69.37;;;20.97;;
19095;SDS011;9680;52.520;13.332;2023-02-15T04:02:44;66.30;;;20.17;;
19095;SDS011;9680;52.520;13.332;2023-02-15T04:05:23;65.97;;;20.30;;
19095;SDS011;9680;52.520;13.332;2023-02-15T04:07:50;73.23;;;22.63;;
19095;SDS011;9680;52.520;13.332;2023-02-15T04:10:16;68.47;;;20.90;;
19095;SDS011;9680;52.520;13.332;2023-02-15T04:13:01;69.97;;;20.60;;
19095;SDS011;9680;52.520;13.332;2023-02-15T04:15:27;69.10;;;20.63;;
19095;SDS011;9680;52.520;13.332;2023-02-15T04:18:12;62.50;;;19.70;;
19095;SDS011;9680;52.520;13.332;2023-02-15T04:20:40;68.00;;;20.07;;
19095;SDS011;9680;52.520;13.332;2023-02-15T04:23:27;65.07;;;19.90;;
19095;SDS011;9680;52.520;13.332;2023-02-15T04:26:11;70.43;;;19.73;;
19095;SDS011;9680;52.520;13.332;2023-02-15T04:28:38;63.40;;;19.47;;
19095;SDS011;9680;52.520;13.332;2023-02-15T04:31:05;67.73;;;21.07;;
19095;SDS011;9680;52.520;13.332;2023-02-15T04:33:32;71.80;;;20.87;;
19095;SDS011;9680;52.520;13.332;2023-02-15T04:36:02;68.93;;;20.73;;
19095;SDS011;9680;52.520;13.332;2023-02-15T04:38:29;67.00;;;20.43;;
19095;SDS011;9680;52.520;13.332;2023-02-15T04:40:56;69.03;;;20.20;;
19095;SDS011;9680;52.520;13.332;2023-02-15T04:43:23;60.97;;;19.77;;
19095;SDS011;9680;52.520;13.332;2023-02-15T04:45:49;68.30;;;20.43;;
19095;SDS011;9680;52.520;13.332;2023-02-15T04:48:17;63.83;;;19.70;;
19095;SDS011;9680;52.520;13.332;2023-02-15T04:50:44;70.47;;;20.90;;
19095;SDS011;9680;52.520;13.332;2023-02-15T04:53:12;69.30;;;21.10;;
19095;SDS011;9680;52.520;13.332;2023-02-15T04:55:41;69.13;;;20.83;;
19095;SDS011;9680;52.520;13.332;2023-02-15T04:58:08;65.83;;;19.60;;
19095;SDS011;9680;52.520;13.332;2023-02-15T05:00:35;66.30;;;19.57;;
19095;SDS011;9680;52.520;13.332;2023-02-15T05:03:01;68.83;;;20.83;;
19095;SDS011;9680;52.520;13.332;2023-02-15T05:05:28;65.53;;;20.77;;
19095;SDS011;9680;52.520;13.332;2023-02-15T05:07:55;65.93;;;20.10;;
19095;SDS011;9680;52.520;13.332;2023-02-15T05:10:23;69.23;;;20.83;;
19095;SDS011;9680;52.520;13.332;2023-02-15T05:12:50;63.87;;;20.60;;
19095;SDS011;9680;52.520;13.332;2023-02-15T05:15:17;64.47;;;20.63;;
19095;SDS011;9680;52.520;13.332;2023-02-15T05:17:44;63.60;;;19.57;;
19095;SDS011;9680;52.520;13.332;2023-02-15T05:20:11;59.80;;;19.73;;
19095;SDS011;9680;52.520;13.332;2023-02-15T05:22:37;68.10;;;20.17;;
19095;SDS011;9680;52.520;13.332;2023-02-15T05:25:06;66.10;;;20.40;;
19095;SDS011;9680;52.520;13.332;2023-02-15T05:27:51;64.77;;;19.93;;
19095;SDS011;9680;52.520;13.332;2023-02-15T05:30:36;69.07;;;19.87;;
19095;SDS011;9680;52.520;13.332;2023-02-15T05:33:04;59.00;;;18.93;;
19095;SDS011;9680;52.520;13.332;2023-02-15T05:35:31;68.97;;;20.27;;
19095;SDS011;9680;52.520;13.332;2023-02-15T05:37:58;63.40;;;20.10;;
19095;SDS011;9680;52.520;13.332;2023-02-15T05:40:25;67.20;;;19.33;;
19095;SDS011;9680;52.520;13.332;2023-02-15T05:42:53;74.90;;;20.37;;
19095;SDS011;9680;52.520;13.332;2023-02-15T05:45:20;62.80;;;19.70;;
19095;SDS011;9680;52.520;13.332;2023-02-15T05:47:47;69.77;;;19.73;;
19095;SDS011;9680;52.520;13.332;2023-02-15T05:50:14;74.30;;;20.77;;
19095;SDS011;9680;52.520;13.332;2023-02-15T05:52:41;71.97;;;19.83;;
19095;SDS011;9680;52.520;13.332;2023-02-15T05:55:08;63.53;;;20.00;;
19095;SDS011;9680;52.520;13.332;2023-02-15T05:57:35;66.43;;;20.60;;
19095;SDS011;9680;52.520;13.332;2023-02-15T06:00:03;66.03;;;20.27;;
19095;SDS011;9680;52.520;13.332;2023-02-15T06:02:36;67.23;;;19.40;;
19095;SDS011;9680;52.520;13.332;2023-02-15T06:05:04;69.57;;;20.90;;
19095;SDS011;9680;52.520;13.332;2023-02-15T06:07:32;65.37;;;19.60;;
19095;SDS011;9680;52.520;13.332;2023-02-15T06:09:59;66.10;;;19.70;;
19095;SDS011;9680;52.520;13.332;2023-02-15T06:12:26;64.60;;;20.20;;
19095;SDS011;9680;52.520;13.332;2023-02-15T06:14:53;69.03;;;20.17;;
19095;SDS011;9680;52.520;13.332;2023-02-15T06:17:21;66.67;;;19.90;;
19095;SDS011;9680;52.520;13.332;2023-02-15T06:19:47;67.03;;;19.63;;
19095;SDS011;9680;52.520;13.332;2023-02-15T06:22:14;64.10;;;20.03;;
19095;SDS011;9680;52.520;13.332;2023-02-15T06:24:41;75.60;;;21.17;;
19095;SDS011;9680;52.520;13.332;2023-02-15T06:27:08;82.63;;;21.47;;
19095;SDS011;9680;52.520;13.332;2023-02-15T06:29:35;77.67;;;20.67;;
19095;SDS011;9680;52.520;13.332;2023-02-15T06:32:02;77.90;;;22.60;;
19095;SDS011;9680;52.520;13.332;2023-02-15T06:34:31;74.53;;;20.93;;
19095;SDS011;9680;52.520;13.332;2023-02-15T06:36:58;73.37;;;20.93;;
19095;SDS011;9680;52.520;13.332;2023-02-15T06:39:30;72.87;;;20.20;;
19095;SDS011;9680;52.520;13.332;2023-02-15T06:41:57;68.00;;;19.23;;
19095;SDS011;9680;52.520;13.332;2023-02-15T06:44:24;81.33;;;21.17;;
19095;SDS011;9680;52.520;13.332;2023-02-15T06:46:51;71.07;;;20.23;;
19095;SDS011;9680;52.520;13.332;2023-02-15T06:49:18;69.90;;;20.90;;
19095;SDS011;9680;52.520;13.332;2023-02-15T06:51:46;78.33;;;20.53;;
19095;SDS011;9680;52.520;13.332;2023-02-15T06:54:15;67.97;;;19.90;;
19095;SDS011;9680;52.520;13.332;2023-02-15T06:56:42;69.03;;;19.20;;
19095;SDS011;9680;52.520;13.332;2023-02-15T06:59:09;70.77;;;20.70;;
19095;SDS011;9680;52.520;13.332;2023-02-15T07:01:36;73.77;;;20.63;;
19095;SDS011;9680;52.520;13.332;2023-02-15T07:04:03;67.97;;;19.63;;
19095;SDS011;9680;52.520;13.332;2023-02-15T07:06:30;80.23;;;20.90;;
19095;SDS011;9680;52.520;13.332;2023-02-15T07:08:59;67.53;;;19.60;;
19095;SDS011;9680;52.520;13.332;2023-02-15T07:11:26;85.63;;;21.07;;
19095;SDS011;9680;52.520;13.332;2023-02-15T07:14:13;78.57;;;20.63;;
19095;SDS011;9680;52.520;13.332;2023-02-15T07:16:39;75.20;;;19.50;;
19095;SDS011;9680;52.520;13.332;2023-02-15T07:19:06;77.20;;;20.37;;
19095;SDS011;9680;52.520;13.332;2023-02-15T07:21:33;71.47;;;21.10;;
19095;SDS011;9680;52.520;13.332;2023-02-15T07:24:01;72.20;;;19.87;;
19095;SDS011;9680;52.520;13.332;2023-02-15T07:26:30;75.90;;;21.83;;
19095;SDS011;9680;52.520;13.332;2023-02-15T07:28:57;75.27;;;20.93;;
19095;SDS011;9680;52.520;13.332;2023-02-15T07:31:24;71.13;;;19.97;;
19095;SDS011;9680;52.520;13.332;2023-02-15T07:33:51;81.83;;;20.77;;
19095;SDS011;9680;52.520;13.332;2023-02-15T07:36:18;81.00;;;21.43;;
19095;SDS011;9680;52.520;13.332;2023-02-15T07:38:45;69.63;;;19.37;;
19095;SDS011;9680;52.520;13.332;2023-02-15T07:41:13;70.70;;;19.83;;
19095;SDS011;9680;52.520;13.332;2023-02-15T07:43:42;67.63;;;19.70;;
19095;SDS011;9680;52.520;13.332;2023-02-15T07:46:10;72.27;;;21.07;;
19095;SDS011;9680;52.520;13.332;2023-02-15T07:48:40;64.63;;;18.60;;
19095;SDS011;9680;52.520;13.332;2023-02-15T07:51:08;72.90;;;18.50;;
19095;SDS011;9680;52.520;13.332;2023-02-15T07:53:36;65.37;;;19.03;;
19095;SDS011;9680;52.520;13.332;2023-02-15T07:56:04;67.70;;;18.73;;
19095;SDS011;9680;52.520;13.332;2023-02-15T07:58:34;61.77;;;19.50;;
19095;SDS011;9680;52.520;13.332;2023-02-15T08:01:17;60.70;;;19.30;;
19095;SDS011;9680;52.520;13.332;2023-02-15T08:03:45;69.73;;;19.63;;
19095;SDS011;9680;52.520;13.332;2023-02-15T08:06:12;61.03;;;18.33;;
19095;SDS011;9680;52.520;13.332;2023-02-15T08:08:39;66.07;;;18.07;;
19095;SDS011;9680;52.520;13.332;2023-02-15T08:11:07;59.50;;;17.47;;
19095;SDS011;9680;52.520;13.332;2023-02-15T08:13:56;56.40;;;18.50;;
19095;SDS011;9680;52.520;13.332;2023-02-15T08:16:26;57.30;;;17.67;;
19095;SDS011;9680;52.520;13.332;2023-02-15T08:18:55;55.90;;;17.97;;
19095;SDS011;9680;52.520;13.332;2023-02-15T08:21:22;56.83;;;17.57;;
19095;SDS011;9680;52.520;13.332;2023-02-15T08:23:51;61.50;;;18.47;;
19095;SDS011;9680;52.520;13.332;2023-02-15T08:26:18;61.47;;;18.93;;
19095;SDS011;9680;52.520;13.332;2023-02-15T08:28:45;59.63;;;18.83;;
19095;SDS011;9680;52.520;13.332;2023-02-15T08:31:15;59.13;;;17.80;;
19095;SDS011;9680;52.520;13.332;2023-02-15T08:33:43;58.43;;;18.60;;
19095;SDS011;9680;52.520;13.332;2023-02-15T08:36:11;58.97;;;17.97;;
19095;SDS011;9680;52.520;13.332;2023-02-15T08:38:39;63.20;;;18.60;;
19095;SDS011;9680;52.520;13.332;2023-02-15T08:41:10;59.60;;;17.00;;
19095;SDS011;9680;52.520;13.332;2023-02-15T08:43:39;60.23;;;18.03;;
19095;SDS011;9680;52.520;13.332;2023-02-15T08:46:06;56.87;;;18.60;;
19095;SDS011;9680;52.520;13.332;2023-02-15T08:48:35;58.67;;;17.53;;
19095;SDS011;9680;52.520;13.332;2023-02-15T08:51:06;57.23;;;17.83;;
19095;SDS011;9680;52.520;13.332;2023-02-15T08:53:36;59.83;;;18.80;;
19095;SDS011;9680;52.520;13.332;2023-02-15T08:56:03;53.80;;;17.43;;
19095;SDS011;9680;52.520;13.332;2023-02-15T08:58:31;52.53;;;17.40;;
19095;SDS011;9680;52.520;13.332;2023-02-15T09:00:58;56.70;;;18.33;;
19095;SDS011;9680;52.520;13.332;2023-02-15T09:03:27;57.70;;;19.20;;
19095;SDS011;9680;52.520;13.332;2023-02-15T09:05:59;54.67;;;18.13;;
19095;SDS011;9680;52.520;13.332;2023-02-15T09:08:27;53.50;;;17.33;;
19095;SDS011;9680;52.520;13.332;2023-02-15T09:11:00;53.17;;;18.03;;
19095;SDS011;9680;52.520;13.332;2023-02-15T09:13:31;62.07;;;18.43;;
19095;SDS011;9680;52.520;13.332;2023-02-15T09:15:58;51.17;;;16.97;;
19095;SDS011;9680;52.520;13.332;2023-02-15T09:18:26;48.70;;;17.60;;
19095;SDS011;9680;52.520;13.332;2023-02-15T09:20:53;50.50;;;16.80;;
19095;SDS011;9680;52.520;13.332;2023-02-15T09:23:21;48.53;;;16.90;;
19095;SDS011;9680;52.520;13.332;2023-02-15T09:25:48;47.20;;;16.20;;
19095;SDS011;9680;52.520;13.332;2023-02-15T09:28:15;54.63;;;17.87;;
19095;SDS011;9680;52.520;13.332;2023-02-15T09:30:42;48.47;;;16.23;;
19095;SDS011;9680;52.520;13.332;2023-02-15T09:33:08;49.80;;;16.70;;
19095;SDS011;9680;52.520;13.332;2023-02-15T09:35:35;45.13;;;16.90;;
19095;SDS011;9680;52.520;13.332;2023-02-15T09:38:02;49.07;;;16.57;;
19095;SDS011;9680;52.520;13.332;2023-02-15T09:40:30;53.63;;;17.30;;
19095;SDS011;9680;52.520;13.332;2023-02-15T09:43:15;53.83;;;17.27;;
19095;SDS011;9680;52.520;13.332;2023-02-15T09:46:05;49.43;;;17.13;;
19095;SDS011;9680;52.520;13.332;2023-02-15T09:48:45;46.67;;;16.90;;
19095;SDS011;9680;52.520;13.332;2023-02-15T09:51:22;44.80;;;16.20;;
19095;SDS011;9680;52.520;13.332;2023-02-15T09:54:07;51.80;;;17.27;;
19095;SDS011;9680;52.520;13.332;2023-02-15T09:56:45;50.90;;;16.93;;
19095;SDS011;9680;52.520;13.332;2023-02-15T09:59:19;44.50;;;16.37;;
19095;SDS011;9680;52.520;13.332;2023-02-15T10:01:58;53.77;;;16.83;;
19095;SDS011;9680;52.520;13.332;2023-02-15T10:04:48;46.57;;;16.20;;
19095;SDS011;9680;52.520;13.332;2023-02-15T10:07:28;49.00;;;17.03;;
19095;SDS011;9680;52.520;13.332;2023-02-15T10:10:08;49.03;;;17.53;;
19095;SDS011;9680;52.520;13.332;2023-02-15T10:12:52;43.63;;;16.17;;
19095;SDS011;9680;52.520;13.332;2023-02-15T10:15:38;43.67;;;15.67;;
19095;SDS011;9680;52.520;13.332;2023-02-15T10:18:20;46.53;;;16.20;;
19095;SDS011;9680;52.520;13.332;2023-02-15T10:21:00;44.73;;;16.90;;
19095;SDS011;9680;52.520;13.332;2023-02-15T10:23:41;45.83;;;17.33;;
19095;SDS011;9680;52.520;13.332;2023-02-15T10:26:25;45.67;;;16.80;;
19095;SDS011;9680;52.520;13.332;2023-02-15T10:29:00;41.87;;;16.13;;
19095;SDS011;9680;52.520;13.332;2023-02-15T10:31:34;48.03;;;16.47;;
19095;SDS011;9680;52.520;13.332;2023-02-15T10:34:15;44.20;;;16.13;;
19095;SDS011;9680;52.520;13.332;2023-02-15T10:36:51;42.70;;;15.73;;
19095;SDS011;9680;52.520;13.332;2023-02-15T10:39:31;47.07;;;16.50;;
19095;SDS011;9680;52.520;13.332;2023-02-15T10:42:05;43.67;;;16.00;;
19095;SDS011;9680;52.520;13.332;2023-02-15T10:44:43;43.17;;;16.67;;
19095;SDS011;9680;52.520;13.332;2023-02-15T10:47:24;42.73;;;15.73;;
19095;SDS011;9680;52.520;13.332;2023-02-15T10:50:09;42.53;;;15.77;;
19095;SDS011;9680;52.520;13.332;2023-02-15T10:52:51;50.80;;;15.57;;
19095;SDS011;9680;52.520;13.332;2023-02-15T10:55:31;42.30;;;16.27;;
19095;SDS011;9680;52.520;13.332;2023-02-15T10:58:11;38.13;;;15.33;;
19095;SDS011;9680;52.520;13.332;2023-02-15T11:00:52;42.23;;;16.63;;
19095;SDS011;9680;52.520;13.332;2023-02-15T11:06:19;41.50;;;15.37;;
19095;SDS011;9680;52.520;13.332;2023-02-15T11:08:49;43.90;;;15.67;;
19095;SDS011;9680;52.520;13.332;2023-02-15T11:11:21;39.27;;;15.97;;
19095;SDS011;9680;52.520;13.332;2023-02-15T11:13:52;43.47;;;16.30;;
19095;SDS011;9680;52.520;13.332;2023-02-15T11:16:26;40.40;;;15.57;;
19095;SDS011;9680;52.520;13.332;2023-02-15T11:18:58;40.23;;;14.80;;
19095;SDS011;9680;52.520;13.332;2023-02-15T11:21:29;40.63;;;15.23;;
19095;SDS011;9680;52.520;13.332;2023-02-15T11:24:07;40.73;;;15.07;;
19095;SDS011;9680;52.520;13.332;2023-02-15T11:26:37;43.03;;;16.07;;
19095;SDS011;9680;52.520;13.332;2023-02-15T11:29:10;41.03;;;14.80;;
19095;SDS011;9680;52.520;13.332;2023-02-15T11:31:45;35.77;;;14.73;;
19095;SDS011;9680;52.520;13.332;2023-02-15T11:34:16;37.17;;;14.43;;
19095;SDS011;9680;52.520;13.332;2023-02-15T11:36:48;37.30;;;14.90;;
19095;SDS011;9680;52.520;13.332;2023-02-15T11:39:18;43.93;;;15.27;;
19095;SDS011;9680;52.520;13.332;2023-02-15T11:41:54;38.30;;;14.97;;
19095;SDS011;9680;52.520;13.332;2023-02-15T11:44:26;38.30;;;14.97;;
19095;SDS011;9680;52.520;13.332;2023-02-15T11:47:07;36.10;;;14.50;;
19095;SDS011;9680;52.520;13.332;2023-02-15T11:49:36;41.40;;;14.57;;
19095;SDS011;9680;52.520;13.332;2023-02-15T11:52:05;40.80;;;15.03;;
19095;SDS011;9680;52.520;13.332;2023-02-15T11:54:34;34.87;;;14.47;;
19095;SDS011;9680;52.520;13.332;2023-02-15T11:57:10;37.83;;;14.63;;
19095;SDS011;9680;52.520;13.332;2023-02-15T11:59:42;37.53;;;14.07;;
19095;SDS011;9680;52.520;13.332;2023-02-15T12:02:18;31.27;;;12.97;;
19095;SDS011;9680;52.520;13.332;2023-02-15T12:04:48;35.23;;;14.67;;
19095;SDS011;9680;52.520;13.332;2023-02-15T12:07:23;34.67;;;14.80;;
19095;SDS011;9680;52.520;13.332;2023-02-15T12:09:53;33.63;;;14.27;;
19095;SDS011;9680;52.520;13.332;2023-02-15T12:12:26;37.90;;;15.33;;
19095;SDS011;9680;52.520;13.332;2023-02-15T12:14:55;37.47;;;14.67;;
19095;SDS011;9680;52.520;13.332;2023-02-15T12:17:25;34.77;;;14.10;;
19095;SDS011;9680;52.520;13.332;2023-02-15T12:19:54;36.93;;;13.80;;
19095;SDS011;9680;52.520;13.332;2023-02-15T12:22:25;33.67;;;13.57;;
19095;SDS011;9680;52.520;13.332;2023-02-15T12:24:55;39.33;;;14.50;;
19095;SDS011;9680;52.520;13.332;2023-02-15T12:27:26;34.70;;;14.30;;
19095;SDS011;9680;52.520;13.332;2023-02-15T12:29:56;37.30;;;13.40;;
19095;SDS011;9680;52.520;13.332;2023-02-15T12:32:30;32.50;;;13.17;;
19095;SDS011;9680;52.520;13.332;2023-02-15T12:35:07;32.43;;;13.00;;
19095;SDS011;9680;52.520;13.332;2023-02-15T12:37:38;37.43;;;13.80;;
19095;SDS011;9680;52.520;13.332;2023-02-15T12:40:20;33.77;;;12.57;;
19095;SDS011;9680;52.520;13.332;2023-02-15T12:42:48;35.83;;;12.93;;
19095;SDS011;9680;52.520;13.332;2023-02-15T12:45:23;37.33;;;13.23;;
19095;SDS011;9680;52.520;13.332;2023-02-15T12:48:12;31.87;;;13.13;;
19095;SDS011;9680;52.520;13.332;2023-02-15T12:50:42;31.03;;;12.60;;
19095;SDS011;9680;52.520;13.332;2023-02-15T12:53:15;31.17;;;12.80;;
19095;SDS011;9680;52.520;13.332;2023-02-15T12:55:52;30.70;;;13.50;;
19095;SDS011;9680;52.520;13.332;2023-02-15T12:58:24;29.83;;;12.90;;
19095;SDS011;9680;52.520;13.332;2023-02-15T13:01:02;29.83;;;12.10;;
19095;SDS011;9680;52.520;13.332;2023-02-15T13:03:38;29.27;;;12.53;;
19095;SDS011;9680;52.520;13.332;2023-02-15T13:06:17;33.63;;;12.93;;
19095;SDS011;9680;52.520;13.332;2023-02-15T13:08:45;37.80;;;12.50;;
19095;SDS011;9680;52.520;13.332;2023-02-15T13:11:19;29.83;;;12.33;;
19095;SDS011;9680;52.520;13.332;2023-02-15T13:13:50;33.13;;;12.80;;
19095;SDS011;9680;52.520;13.332;2023-02-15T13:16:21;30.47;;;12.40;;
19095;SDS011;9680;52.520;13.332;2023-02-15T13:18:56;28.83;;;12.30;;
19095;SDS011;9680;52.520;13.332;2023-02-15T13:21:30;31.03;;;12.93;;
19095;SDS011;9680;52.520;13.332;2023-02-15T13:24:02;30.97;;;13.07;;
19095;SDS011;9680;52.520;13.332;2023-02-15T13:26:32;32.43;;;12.73;;
19095;SDS011;9680;52.520;13.332;2023-02-15T13:29:05;29.73;;;12.40;;
19095;SDS011;9680;52.520;13.332;2023-02-15T13:31:36;32.87;;;12.97;;
19095;SDS011;9680;52.520;13.332;2023-02-15T13:34:09;31.10;;;12.63;;
19095;SDS011;9680;52.520;13.332;2023-02-15T13:36:41;26.77;;;12.03;;
19095;SDS011;9680;52.520;13.332;2023-02-15T13:39:19;31.23;;;12.67;;
19095;SDS011;9680;52.520;13.332;2023-02-15T13:41:53;30.63;;;13.10;;
19095;SDS011;9680;52.520;13.332;2023-02-15T13:44:41;26.87;;;12.27;;
19095;SDS011;9680;52.520;13.332;2023-02-15T13:47:34;30.40;;;12.37;;
19095;SDS011;9680;52.520;13.332;2023-02-15T13:50:17;28.33;;;11.90;;
19095;SDS011;9680;52.520;13.332;2023-02-15T13:52:56;31.13;;;12.47;;
19095;SDS011;9680;52.520;13.332;2023-02-15T13:55:40;31.20;;;13.07;;
19095;SDS011;9680;52.520;13.332;2023-02-15T13:58:25;32.07;;;12.97;;
19095;SDS011;9680;52.520;13.332;2023-02-15T14:01:07;27.40;;;12.50;;
19095;SDS011;9680;52.520;13.332;2023-02-15T14:03:43;29.83;;;12.80;;
19095;SDS011;9680;52.520;13.332;2023-02-15T14:09:51;31.93;;;13.37;;
19095;SDS011;9680;52.520;13.332;2023-02-15T14:12:35;30.77;;;12.30;;
19095;SDS011;9680;52.520;13.332;2023-02-15T14:15:13;28.57;;;12.57;;
19095;SDS011;9680;52.520;13.332;2023-02-15T14:17:53;35.63;;;13.53;;
19095;SDS011;9680;52.520;13.332;2023-02-15T14:20:31;35.17;;;12.43;;
19095;SDS011;9680;52.520;13.332;2023-02-15T14:23:07;36.17;;;12.67;;
19095;SDS011;9680;52.520;13.332;2023-02-15T14:25:45;26.57;;;11.93;;
19095;SDS011;9680;52.520;13.332;2023-02-15T14:28:18;32.30;;;12.93;;
19095;SDS011;9680;52.520;13.332;2023-02-15T14:30:49;27.60;;;12.53;;
19095;SDS011;9680;52.520;13.332;2023-02-15T14:33:25;29.50;;;12.60;;
19095;SDS011;9680;52.520;13.332;2023-02-15T14:35:58;27.47;;;12.20;;
19095;SDS011;9680;52.520;13.332;2023-02-15T14:38:28;28.30;;;11.80;;
19095;SDS011;9680;52.520;13.332;2023-02-15T14:41:09;30.73;;;12.77;;
19095;SDS011;9680;52.520;13.332;2023-02-15T14:43:45;30.50;;;11.90;;
19095;SDS011;9680;52.520;13.332;2023-02-15T14:46:21;29.50;;;11.87;;
19095;SDS011;9680;52.520;13.332;2023-02-15T14:48:55;29.93;;;12.43;;
19095;SDS011;9680;52.520;13.332;2023-02-15T14:57:26;25.47;;;11.13;;
19095;SDS011;9680;52.520;13.332;2023-02-15T14:59:58;43.37;;;12.23;;
19095;SDS011;9680;52.520;13.332;2023-02-15T15:02:42;26.40;;;11.10;;